Station: Territory Grape Farm

  Atmospheric Gas Attenuation - ITU Rec 676-11   --------------- db/100km ---------------
Date Time Temp RH % AH g/m3 Dew Point Wind Direction Speed kph Gust kph Barometer mB Rainfall Since 9am 24GHz 47GHz 76GHz 122GHz 134GHz 241GHz
11 23:00 16.4 49 6.84 5.7 11 15 1017.2 0 15.7 22.6 32.1 83.8 73.7 252.3
11 22:50 16.4 49 6.84 5.6 11 15 1013.1 0 15.7 22.5 31.9 83.5 73.4 251.4
11 22:40 16.6 49 6.92 5.8 11 13 1013.1 0 15.9 22.6 32.1 84.0 74.2 254.1
11 22:30 16.5 51 7.16 6.3 13 13 1013.1 0 16.4 22.9 33.0 86.5 77.2 264.5
11 22:20 15.6 54 7.18 6.3 11 11 1013.1 0 16.5 23.2 33.5 87.6 78.3 268.4
11 22:10 15.8 53 7.13 6.2 9 11 1013.1 0 16.4 23.1 33.2 86.9 77.5 265.6
11 22:00 15.9 53 7.18 6.3 11 13 1017.1 0 16.5 23.3 33.5 87.7 78.3 268.3
11 21:50 15.7 53 7.09 6.1 11 11 1013.1 0 16.3 23.0 33.1 86.6 77.1 264.2
11 21:40 15.8 51 6.86 5.9 13 13 1013.1 0 15.8 22.7 32.2 84.3 74.2 254.1
11 21:30 16 53 7.22 6.4 9 9 1016.8 0 16.6 23.3 33.6 87.9 78.7 269.6
11 21:20 15.7 51 6.82 5.6 9 9 1013.1 0 15.7 22.6 32.1 84.0 73.9 252.7
11 21:10 16.1 49 6.72 5.4 9 9 1013.1 0 15.5 22.4 31.6 82.6 72.3 247.3
11 21:00 16.7 47 6.68 5.3 9 11 1016.5 0 15.4 22.3 31.4 81.9 71.5 244.5
11 20:50 17.3 45 6.63 5.2 9 9 1013.1 0 15.3 22.0 30.8 80.5 70.2 239.9
11 20:40 18.1 44 6.8 5.6 9 11 1013.1 0 15.6 22.0 31.1 81.3 71.4 244.5
11 20:30 18.6 43 6.84 5.8 11 13 1016.2 0 15.6 22.1 31.2 81.5 71.6 245.3
11 20:20 18.8 43 6.92 5.9 11 13 1013.1 0 15.8 22.0 31.3 81.8 72.2 247.3
11 20:10 18.7 42 6.72 5.8 11 13 1013.1 0 15.4 21.8 30.6 80.0 70.0 239.5
11 20:00 18.6 43 6.84 5.8 11 13 1015.8 0 15.6 22.0 31.2 81.5 71.6 245.2
11 19:50 18.5 42 6.64 5.3 11 11 1013.1 0 15.2 21.7 30.4 79.4 69.2 236.8
11 19:40 18.9 42 6.8 5.7 11 11 1013.1 0 15.6 21.8 30.8 80.5 70.7 242.1
11 19:30 19.1 40 6.56 5.2 13 15 1015.5 0 15.0 21.5 30.0 78.3 67.9 232.4
11 19:20 19.4 38 6.34 4.7 11 11 1013.1 0 14.6 21.1 29.1 75.8 65.1 222.3
11 19:10 19.8 36 6.15 4.3 9 11 1013.1 0 14.2 20.7 28.3 73.7 62.6 213.8
11 19:00 20.5 33 5.87 3.7 11 13 1014.3 0 13.5 20.2 27.2 70.7 59.1 201.4
11 18:50 21.4 31 5.81 3.6 9 11 1013.1 0 13.4 19.9 26.6 69.3 57.7 196.8
11 18:40 22.4 30 5.96 4 11 11 1013.1 0 13.7 19.9 26.8 69.8 58.6 200.0
11 18:30 22.9 29 5.93 3.9 11 15 1014.2 0 13.6 19.8 26.6 69.2 58.0 197.9
11 18:20 23.9 27 5.84 3.7 13 19 1013.1 0 13.4 19.4 25.9 67.5 56.3 192.1
11 18:10 24.6 26 5.85 3.8 13 15 1013.1 0 13.4 19.3 25.8 67.1 55.9 190.8
11 18:00 25.2 25 5.82 3.8 15 20 1014.1 0 13.3 19.2 25.5 66.4 55.3 188.6
11 17:50 25.6 24 5.71 3.5 17 19 1013.1 0 13.0 18.9 25.0 65.1 53.9 183.6
11 17:40 26 23 5.6 3.2 15 17 1013.1 0 12.8 18.7 24.6 63.9 52.5 178.8
11 17:30 26.3 22 5.45 2.9 17 22 1014.1 0 12.5 18.5 24.1 62.6 50.8 173.1
11 17:20 26.5 22 5.51 3 22 24 1013.1 0 12.6 18.5 24.2 62.8 51.3 174.6
11 17:10 26.8 22 5.6 3.3 20 24 1013.1 0 12.8 18.6 24.3 63.3 52.0 177.1
11 17:00 26.8 21 5.35 2.7 17 26 1014 0 12.3 18.3 23.6 61.4 49.6 168.5
11 16:50 27.2 22 5.73 3.6 15 17 1013.1 0 13.0 18.6 24.6 64.1 53.0 180.8
11 16:40 27.3 21 5.5 3 19 26 1013.1 0 12.6 18.3 23.9 62.1 50.7 172.6
11 16:30 27.3 22 5.76 3.7 19 28 1014.1 0 13.1 18.7 24.7 64.3 53.3 181.8
11 16:20 27.8 22 5.92 4.1 22 28 1013.1 0 13.4 18.8 25.0 65.1 54.5 186.2
11 16:10 27.6 22 5.85 3.9 9 11 1013.1 0 13.3 18.7 24.9 64.7 54.0 184.2
11 16:00 27.4 23 6.05 4.5 17 30 1014.2 0 13.7 19.0 25.6 66.6 56.1 191.8
11 15:50 27.2 23 5.99 4.2 19 24 1013.1 0 13.6 19.0 25.4 66.2 55.6 190.0
11 15:40 27.5 23 6.09 4.5 19 22 1013.1 0 13.8 19.0 25.6 66.7 56.4 192.8
11 15:30 27.5 24 6.35 5.1 20 32 1014.3 0 14.3 19.4 26.4 69.0 59.1 202.2
11 15:20 27.4 24 6.32 5 15 17 1013.1 0 14.2 19.3 26.3 68.7 58.8 201.2
11 15:10 27.3 24 6.28 4.9 24 30 1013.1 0 14.2 19.3 26.3 68.5 58.5 200.0
11 15:00 27.2 24 6.25 4.9 17 32 1014.5 0 14.1 19.3 26.2 68.4 58.3 199.4
11 14:50 27.1 25 6.47 5.4 11 19 1013.1 0 14.6 19.6 26.9 70.2 60.6 207.3
11 14:40 27 25 6.43 5.3 20 28 1013.1 0 14.5 19.5 26.8 69.9 60.2 206.1
11 14:30 27.2 24 6.25 4.9 17 30 1014.6 0 14.1 19.3 26.2 68.4 58.3 199.4
11 14:20 26.9 25 6.4 5.2 19 22 1013.1 0 14.4 19.5 26.8 69.8 60.0 205.3
11 14:10 26.5 26 6.51 5.4 19 20 1013.1 0 14.7 19.8 27.2 71.0 61.4 210.2
11 14:00 26.7 27 6.83 6.2 19 32 1014.9 0 15.3 20.2 28.2 73.7 64.7 221.7
11 13:50 26.1 27 6.61 5.6 19 20 1013.1 0 14.9 20.0 27.7 72.2 62.7 214.9
11 13:40 25.6 27 6.43 5.2 15 19 1013.1 0 14.5 19.8 27.3 71.1 61.2 209.6
11 13:30 26.5 27 6.76 6 17 28 1015.5 0 15.2 20.1 28.1 73.3 64.1 219.8
11 13:20 26.4 27 6.72 5.9 19 24 1013.1 0 15.1 20.0 27.9 72.9 63.7 218.2
11 13:10 25.5 28 6.63 5.6 17 19 1013.1 0 15.0 20.1 27.9 72.9 63.4 217.2
11 13:00 25.1 29 6.71 5.8 20 32 1015.9 0 15.1 20.4 28.4 74.2 64.7 221.7
11 12:50 25 28 6.45 5.2 19 26 1013.1 0 14.6 20.0 27.5 71.8 61.9 211.8
11 12:40 25.2 29 6.75 5.9 13 15 1013.1 0 15.2 20.3 28.4 74.2 64.9 222.4
11 12:30 25.3 29 6.79 6 20 32 1016.4 0 15.3 20.5 28.6 74.7 65.5 224.3
11 12:20 24.7 30 6.79 5.9 17 22 1013.1 0 15.3 20.5 28.7 75.0 65.7 225.3
11 12:10 24.9 31 7.1 6.6 19 24 1013.1 0 15.9 20.9 29.6 77.5 68.9 236.4
11 12:00 24.7 30 6.79 6 22 33 1017 0 15.3 20.6 28.8 75.3 66.0 226.0
11 11:50 24.1 31 6.78 5.9 19 26 1013.1 0 15.3 20.6 28.9 75.4 66.1 226.5
11 11:40 23.9 30 6.49 5.2 24 28 1013.1 0 14.7 20.3 28.0 73.1 63.2 216.1
11 11:30 23.6 31 6.59 5.5 22 32 1017.4 0 14.9 20.6 28.6 74.6 64.7 221.5
11 11:20 23.6 31 6.59 5.5 22 32 1013.1 0 14.9 20.5 28.4 74.2 64.5 220.7
11 11:10 23.4 31 6.52 5.3 28 39 1013.1 0 14.8 20.4 28.3 73.8 63.9 218.6
11 11:00 23 31 6.37 5 24 39 1017.7 0 14.5 20.5 28.1 73.2 62.8 214.8
11 10:50 23 32 6.58 5.4 24 37 1013.1 0 14.9 20.6 28.6 74.7 64.8 221.9
11 10:40 22.9 32 6.54 5.3 19 26 1013.1 0 14.9 20.6 28.5 74.4 64.5 220.7
11 10:30 22.5 32 6.39 5 22 32 1017.9 0 14.6 20.6 28.3 73.9 63.4 216.9
11 10:20 22.8 33 6.71 5.7 20 24 1013.1 0 15.2 20.8 29.1 76.0 66.4 227.4
11 10:10 21.5 34 6.41 5 24 30 1013.1 0 14.6 20.7 28.6 74.5 64.2 219.4
11 10:00 21.9 34 6.56 5.3 24 32 1018 0 14.9 21.0 29.1 75.9 65.8 225.1
11 09:50 21.4 35 6.56 5.3 24 30 1013.1 0 15.0 20.9 29.1 76.0 65.9 225.5
11 09:40 21.1 37 6.82 5.8 19 28 1013.1 0 15.5 21.3 30.1 78.6 69.0 236.5
11 09:30 20.1 37 6.43 5 26 39 1018 0 14.7 21.2 29.3 76.4 65.8 224.9
11 09:20 19.8 37 6.32 5 24 32 1013.1 0 14.5 20.9 28.8 75.3 64.5 220.5
11 09:10 19.7 38 6.45 5 24 30 1013.1 0 14.8 21.1 29.3 76.5 66.1 225.8
11 09:00 19.9 39 6.7 5.5 26 41 1017.9 0 15.3 21.6 30.3 79.1 69.0 236.2
11 08:50 19.4 39 6.51 5.1 28 39 1013.1 0 14.9 21.3 29.6 77.4 67.0 229.1
11 08:40 19.1 40 6.56 5.2 22 30 1013.1 0 15.0 21.4 29.9 78.1 67.8 231.9
11 08:30 18.5 41 6.49 5 30 41 1017.7 0 14.9 21.6 30.1 78.4 67.8 231.7
11 08:20 18.7 42 6.72 5.5 30 35 1013.1 0 15.4 21.8 30.6 80.0 70.0 239.5
11 08:10 18 43 6.6 5.2 28 33 1013.1 0 15.2 21.8 30.5 79.6 69.2 236.7
11 08:00 18.2 45 6.99 6.1 22 37 1017.5 0 16.0 22.4 31.9 83.4 73.8 252.9
11 07:50 17.8 46 6.98 6 24 30 1013.1 0 16.0 22.3 31.9 83.4 73.8 252.8
11 07:40 17.6 47 7.05 6.1 20 32 1013.1 0 16.1 22.5 32.2 84.2 74.8 256.4
11 07:30 17.4 48 7.11 6.3 19 28 1017.2 0 16.3 22.8 32.7 85.4 76.0 260.4
11 07:20 17.4 49 7.26 6.8 20 24 1013.1 0 16.6 22.9 33.0 86.5 77.5 265.8
11 07:10 16.7 54 7.67 7.3 17 19 1013.1 0 17.5 23.6 34.8 91.3 83.2 285.6
11 07:00 15.7 59 7.89 7.7 11 15 1016.8 0 18.0 24.4 36.3 95.0 87.3 299.7
11 06:50 15.2 61 7.92 7.7 11 13 1013.1 0 18.1 24.4 36.5 95.5 87.9 302.0
11 06:40 14.9 62 7.9 7.7 9 11 1013.1 0 18.0 24.5 36.5 95.7 88.0 302.3
11 06:30 14.9 63 8.03 7.9 11 17 1016.3 0 18.3 24.8 37.2 97.4 89.9 308.9

Last Refresh: 11-Apr-2021 23:12:21

Bureau of Meteorology